KNUWKFHR

Guest
Details From KNUW - Whidbey Island Nas
To KFHR - Friday Harbor
Flight Number -
Tags Generated
Created
Modified
Stats Distance 18 nm / 32 km
Max Altitude 0 ft / 0 m
Waypoints 2
Social Downloads 6
Likes 0
Share VATSIM

Download

Looking for another format? Having issues loading an existing format? Contact us
Advertisement - Login to hide

Notes

Generated

Route

KNUW KFHR

ID Type Via Altitude Latitude Longitude Leg Dist Tot Dist Heading (true) Name
O KNUW APT - 0 ft / 0 m 48.36167˚ -122.66246˚ - 0 nm - -
O KFHR APT - 0 ft / 0 m 48.52662˚ -123.02473˚ 17 nm 17 nm 305° / 304° -

Altitude Profile

Advertisement - Login to hide

KNUW

Details ICAO KNUW (NUW)
Name WHIDBEY ISLAND NAS
Region United States
Timezone America/Los_Angeles (UTC-8.0)
Stats Elevation 47 ft / 14 m (AMSL)
Location 48.351803° -122.655907°
Runways 2
Magnetic Variation 15.967° E

METAR

KNUW 110456Z 14004KT 7SM BCFG FEW180 SCT230 01/M02 A3037 RMK AO2 SLP284 T00111017 $

Decode

TAF

TAF KNUW 1023/1123 VRB06KT 9999 FEW120 SCT250 QNH3030INS FM110700 VRB05KT 8000 BR FEW005 SCT200 QNH3026INS TEMPO 1109/1115 0800 FG BKN005 BKN200 FM111800 12010KT 9999 SCT009 SCT200 QNH3024INS T01/1112Z T09/1121Z FS30111

Decode

Departure Runways

ID Width Length Bearing (true) Bearing (mag) Surface Threshold Offset Overrun Length
07 200 ft / 61 m 7,977 ft / 2,432 m 86.95° 70.98° Concrete 0 ft / 0 m 1,000 ft / 305 m
13 200 ft / 61 m 7,999 ft / 2,438 m 154.71° 138.74° Concrete 0 ft / 0 m 1,000 ft / 305 m
25 200 ft / 61 m 7,977 ft / 2,432 m 266.97° 251.00° Concrete 0 ft / 0 m 1,000 ft / 305 m
31 200 ft / 61 m 7,999 ft / 2,438 m 334.72° 318.75° Concrete 0 ft / 0 m 1,000 ft / 305 m

KFHR

Details ICAO KFHR (FRD)
Name FRIDAY HARBOR
Region United States
Timezone America/Los_Angeles (UTC-8.0)
Stats Elevation 113 ft / 34 m (AMSL)
Location 48.521966° -123.024368°
Runways 1
Magnetic Variation 16.074° E

METAR

KFHR 110453Z AUTO VRB03KT 10SM CLR 04/03 A3034 RMK AO2 SLP275 T00390028 $

Decode

TAF

Not found

Destination Runways

ID Width Length Bearing (true) Bearing (mag) Surface Threshold Offset Overrun Length
16 75 ft / 23 m 3,402 ft / 1,037 m 177.06° 160.99° Asphalt 0 ft / 0 m 0 ft / 0 m
34 75 ft / 23 m 3,402 ft / 1,037 m 357.06° 340.99° Asphalt 0 ft / 0 m 0 ft / 0 m

Popular Alternatives